»·PEaware :: N213DS KCRQ-KSBD

N213DS :: KCRQ-KSBD

FLIGHT INFORMATION

Flight Status: Arrived
Operator: Privately registered:
United States
More flights under this callsign
Pilot: Robert D. (13877)
Aircraft: Unknown
(DA40)
More flights by this aircraft type
Origin: KCRQ McClellan-Palomar
United States
Destination: KSBD San Bernardino Intl
United States
More flights between these airports :: More routes between these airports
Route: OCN V23 DANAH V363 POXKU V8 PDZ
File this flight plan on PilotEdge
Remarks:
Altitude:
(Current/Filed)
7,000ft
Speed:
(Current/Filed)
125kts
Departed: 24-Jul-20 05:58 PM
Arrived: 24-Jul-20 06:39 PM
Distance/Time
Traveled:
58nm/0:41
Distance/Time
To Go:
Arrived

Flight Plot

Page will automatically refresh every two minutes.


Map Options




Map Legend


Flown Route
Filed Route
Departure Airport
Arrival Airport
Navaid (VOR, NDB)
Fix

Horizontal Profiles

Position Reports

Time Latitude Longitude Heading Altitude Ground
Speed
24-Jul-20 17:33 33.126982 -117.278877 167 334ft 0kts
24-Jul-20 17:34 33.126982 -117.278877 167 334ft 0kts
24-Jul-20 17:35 33.126982 -117.278877 167 334ft 0kts
24-Jul-20 17:36 33.126982 -117.278877 167 334ft 0kts
24-Jul-20 17:37 33.126982 -117.278877 167 334ft 0kts
24-Jul-20 17:38 33.126982 -117.278877 167 334ft 0kts
24-Jul-20 17:39 33.126982 -117.278877 167 334ft 0kts
24-Jul-20 17:40 33.126982 -117.278877 167 334ft 0kts
24-Jul-20 17:41 33.126982 -117.278877 167 334ft 0kts
24-Jul-20 17:42 33.126982 -117.278877 167 334ft 0kts
24-Jul-20 17:43 33.126982 -117.278877 167 334ft 0kts
24-Jul-20 17:44 33.126982 -117.278877 167 334ft 0kts
24-Jul-20 17:45 33.126982 -117.278877 167 334ft 0kts
24-Jul-20 17:46 33.126982 -117.278877 167 334ft 0kts
24-Jul-20 17:47 33.126982 -117.278877 167 334ft 0kts
24-Jul-20 17:48 33.126982 -117.278877 167 334ft 0kts
24-Jul-20 17:49 33.126982 -117.278877 167 334ft 0kts
24-Jul-20 17:50 33.126982 -117.278877 167 334ft 0kts
24-Jul-20 17:51 33.126982 -117.278877 167 334ft 0kts
24-Jul-20 17:52 33.126928 -117.278748 72 334ft 0kts
24-Jul-20 17:53 33.127966 -117.276583 79 334ft 22kts
24-Jul-20 17:54 33.128698 -117.272331 359 334ft 0kts
24-Jul-20 17:55 33.128697 -117.272331 359 334ft 0kts
24-Jul-20 17:56 33.128829 -117.272336 353 334ft 8kts
24-Jul-20 17:57 33.126937 -117.288071 252 805ft 54kts
24-Jul-20 17:58 33.124917 -117.311206 262 1596ft 86kts
24-Jul-20 17:59 33.130963 -117.341143 325 2346ft 108kts
24-Jul-20 18:00 33.158551 -117.360300 327 3073ft 110kts
24-Jul-20 18:01 33.186085 -117.379277 326 3795ft 109kts
24-Jul-20 18:02 33.213281 -117.398261 326 4514ft 109kts
24-Jul-20 18:03 33.240508 -117.417389 324 5233ft 109kts
24-Jul-20 18:04 33.262616 -117.442992 312 5949ft 106kts
24-Jul-20 18:05 33.287871 -117.472261 312 6000ft 129kts
24-Jul-20 18:06 33.315107 -117.503964 312 6000ft 131kts
24-Jul-20 18:07 33.342615 -117.536089 312 6003ft 131kts
24-Jul-20 18:08 33.369965 -117.568046 312 6001ft 131kts
24-Jul-20 18:09 33.397203 -117.599906 313 6002ft 131kts
24-Jul-20 18:10 33.424095 -117.631275 313 6001ft 132kts
24-Jul-20 18:11 33.450470 -117.662200 313 6001ft 132kts
24-Jul-20 18:12 33.476685 -117.692908 312 6001ft 132kts
24-Jul-20 18:13 33.510455 -117.702119 349 6002ft 135kts
24-Jul-20 18:14 33.544707 -117.708378 352 6002ft 135kts
24-Jul-20 18:15 33.580801 -117.714500 352 6002ft 135kts
24-Jul-20 18:16 33.616578 -117.720505 352 6003ft 135kts
24-Jul-20 18:17 33.655729 -117.724871 26 6004ft 133kts
24-Jul-20 18:18 33.687366 -117.699059 32 6010ft 133kts
24-Jul-20 18:19 33.720445 -117.674995 31 6016ft 132kts
24-Jul-20 18:20 33.752966 -117.651276 32 6020ft 125kts
24-Jul-20 18:21 33.783427 -117.629073 32 6024ft 121kts
24-Jul-20 18:22 33.813405 -117.606963 32 6027ft 121kts
24-Jul-20 18:23 33.843322 -117.584900 32 6026ft 121kts
24-Jul-20 18:24 33.873188 -117.562874 32 6021ft 121kts
24-Jul-20 18:25 33.902132 -117.541509 32 6016ft 120kts
24-Jul-20 18:26 33.924758 -117.518087 53 5958ft 108kts
24-Jul-20 18:27 33.942453 -117.489548 53 5542ft 122kts
24-Jul-20 18:28 33.961079 -117.458343 53 5004ft 126kts
24-Jul-20 18:29 33.980975 -117.425541 55 4986ft 110kts
24-Jul-20 18:30 34.001021 -117.391566 55 4395ft 134kts
24-Jul-20 18:31 34.023181 -117.354991 55 3577ft 129kts
24-Jul-20 18:32 34.044651 -117.319133 55 2758ft 128kts
24-Jul-20 18:33 34.064699 -117.285591 60 2470ft 109kts
24-Jul-20 18:34 34.078622 -117.250074 73 2265ft 111kts
24-Jul-20 18:35 34.087676 -117.214849 75 2288ft 100kts
24-Jul-20 18:36 34.101194 -117.200571 296 1828ft 69kts
24-Jul-20 18:37 34.099071 -117.221954 249 1155ft 51kts
24-Jul-20 18:38 34.096264 -117.232015 250 1124ft 33kts
24-Jul-20 18:39 34.095958 -117.238996 249 1108ft 19kts
24-Jul-20 18:40 34.096773 -117.242555 331 1097ft 0kts
24-Jul-20 18:41 34.096773 -117.242555 331 1097ft 0kts
24-Jul-20 18:42 34.096773 -117.242555 331 1097ft 0kts

Navigation Log

Ident Type
Flight plan parsing failed, navigation log unavailable